Time;durP1;ratioP1;P1;durP2;ratioP2;P2;SDS_P1;SDS_P2;PMS_P1;PMS_P2;Temp;Humidity;BMP_temperature;BMP_pressure;BME280_temperature;BME280_humidity;BME280_pressure;Samples;Min_cycle;Max_cycle;Signal;HPM_P1;HPM_P2
2022/01/20 00:00:04;;;;;;;7.22;2.20;;;20.30;46.20;;;;;;4932987;29;20046;-83
2022/01/20 00:02:36;;;;;;;7.97;2.97;;;20.40;46.30;;;;;;4933862;29;20109;-83
2022/01/20 00:26:57;;;;;;;5.75;1.92;;;20.20;46.30;;;;;;4916694;29;20086;-84
2022/01/20 00:29:28;;;;;;;7.90;2.55;;;20.20;46.30;;;;;;4933841;29;20051;-83
2022/01/20 00:32:05;;;;;;;6.15;1.90;;;20.20;46.40;;;;;;4917775;29;20079;-83
2022/01/20 00:35:03;;;;;;;6.50;2.10;;;21.50;47.10;;;;;;4917230;29;20048;-83
2022/01/20 00:37:17;;;;;;;8.10;2.10;;;20.50;46.50;;;;;;4933724;29;20056;-84
2022/01/20 00:39:43;;;;;;;7.05;1.98;;;20.10;46.30;;;;;;4933728;29;20057;-83
2022/01/20 00:42:08;;;;;;;5.82;1.75;;;20.10;46.30;;;;;;4917226;29;20492;-83
2022/01/20 00:44:34;;;;;;;6.85;1.88;;;21.50;47.10;;;;;;4933574;29;20048;-83
2022/01/20 00:47:00;;;;;;;6.60;1.80;;;20.10;46.40;;;;;;4933079;29;20059;-83
2022/01/20 00:49:25;;;;;;;7.10;1.70;;;20.10;46.40;;;;;;4917961;29;20167;-83
2022/01/20 00:51:51;;;;;;;6.63;1.73;;;20.10;46.40;;;;;;4933256;29;20403;-83
2022/01/20 00:54:16;;;;;;;6.50;2.10;;;20.10;46.40;;;;;;4932675;29;20060;-84
2022/01/20 00:56:42;;;;;;;5.40;1.73;;;20.10;46.40;;;;;;4917475;29;20051;-84
2022/01/20 00:59:07;;;;;;;5.40;1.75;;;20.00;46.40;;;;;;4919736;29;20066;-84
2022/01/20 01:01:33;;;;;;;6.13;1.98;;;20.00;46.40;;;;;;4932344;29;20500;-84
2022/01/20 01:03:58;;;;;;;6.57;2.10;;;20.00;46.40;;;;;;4917186;29;20060;-84
2022/01/20 01:08:52;;;;;;;4.57;1.58;;;20.00;46.40;;;;;;4916434;29;20051;-84
2022/01/20 01:11:19;;;;;;;4.78;1.38;;;20.00;46.40;;;;;;4932939;29;20051;-84
2022/01/20 01:13:45;;;;;;;5.60;1.88;;;20.00;46.40;;;;;;4917828;29;20062;-84
2022/01/20 01:16:12;;;;;;;6.47;1.85;;;20.00;46.50;;;;;;4914585;29;20505;-84
2022/01/20 01:23:53;;;;;;;6.40;1.83;;;19.90;46.50;;;;;;4916636;29;20058;-84
2022/01/20 01:26:21;;;;;;;5.60;1.88;;;20.60;46.80;;;;;;4929951;29;20138;-84
2022/01/20 01:28:46;;;;;;;4.13;1.30;;;19.90;46.50;;;;;;4932965;29;20522;-84
2022/01/20 01:33:40;;;;;;;5.32;1.42;;;19.90;46.50;;;;;;4916834;29;20058;-84
2022/01/20 01:36:08;;;;;;;4.10;1.30;;;20.10;46.60;;;;;;4916944;29;20058;-84
2022/01/20 01:38:36;;;;;;;6.50;1.77;;;19.90;46.50;;;;;;4916468;29;20109;-84
2022/01/20 01:41:04;;;;;;;6.38;1.88;;;21.30;47.30;;;;;;4916547;29;20047;-84
2022/01/20 01:43:31;;;;;;;4.95;1.70;;;19.80;46.50;;;;;;4916028;29;20828;-84
2022/01/20 01:45:57;;;;;;;3.80;1.10;;;19.80;46.50;;;;;;4932786;29;20062;-83
2022/01/20 01:48:22;;;;;;;4.10;1.33;;;19.80;46.50;;;;;;4916915;29;20043;-84
2022/01/20 01:50:48;;;;;;;3.47;1.17;;;19.80;46.50;;;;;;4931486;29;20055;-83
2022/01/20 01:53:16;;;;;;;4.25;1.30;;;19.80;46.60;;;;;;4916770;29;20182;-84
2022/01/20 01:55:41;;;;;;;3.40;1.20;;;19.80;46.50;;;;;;4916942;29;20051;-83
2022/01/20 01:58:07;;;;;;;4.90;1.50;;;19.80;46.60;;;;;;4916158;29;20044;-83
2022/01/20 02:00:33;;;;;;;2.88;0.90;;;19.80;46.60;;;;;;4932608;29;20059;-83
2022/01/20 02:03:00;;;;;;;5.15;1.42;;;19.80;46.60;;;;;;4932414;29;20051;-83
2022/01/20 02:05:25;;;;;;;3.53;1.10;;;19.70;46.50;;;;;;4931356;29;20083;-83
2022/01/20 02:08:21;;;;;;;5.30;1.67;;;19.80;46.60;;;;;;4916389;29;20095;-84
2022/01/20 02:18:51;;;;;;;3.47;1.23;;;19.70;46.60;;;;;;4914960;29;20496;-83
2022/01/20 02:21:17;;;;;;;4.60;1.35;;;19.70;46.60;;;;;;4931974;29;20047;-83
2022/01/20 02:23:43;;;;;;;3.90;1.10;;;19.70;46.60;;;;;;4930975;29;20043;-84
2022/01/20 02:26:09;;;;;;;3.05;0.93;;;19.70;46.60;;;;;;4915076;29;20055;-84
2022/01/20 02:28:34;;;;;;;3.67;1.20;;;19.70;46.60;;;;;;4914568;29;20051;-83
2022/01/20 02:31:00;;;;;;;4.55;1.52;;;19.70;46.60;;;;;;4915869;29;20039;-83
2022/01/20 02:33:27;;;;;;;4.25;1.10;;;19.60;46.60;;;;;;4930583;29;20488;-84
2022/01/20 02:36:00;;;;;;;3.45;0.90;;;19.60;46.60;;;;;;4930859;29;20043;-84
2022/01/20 02:46:22;;;;;;;3.17;1.05;;;19.60;46.60;;;;;;4915129;29;20052;-83
2022/01/20 02:48:48;;;;;;;4.10;0.93;;;19.60;46.60;;;;;;4914366;29;20067;-84
2022/01/20 02:51:13;;;;;;;3.33;1.00;;;19.60;46.60;;;;;;4914890;29;20044;-84
2022/01/20 02:53:39;;;;;;;3.80;1.00;;;19.60;46.70;;;;;;4930344;29;20431;-84
2022/01/20 02:56:05;;;;;;;2.97;0.80;;;19.60;46.70;;;;;;4931073;29;20040;-83
2022/01/20 02:58:30;;;;;;;3.30;0.95;;;19.60;46.60;;;;;;4930736;29;20733;-83
2022/01/20 03:00:56;;;;;;;2.20;0.80;;;19.50;46.60;;;;;;4929948;29;20186;-84
2022/01/20 03:03:22;;;;;;;3.55;0.90;;;19.60;46.70;;;;;;4914679;29;20055;-83
2022/01/20 03:05:48;;;;;;;3.67;0.95;;;19.50;46.60;;;;;;4927593;29;20078;-83
2022/01/20 03:08:13;;;;;;;3.40;0.93;;;19.50;46.60;;;;;;4913983;29;20449;-82
2022/01/20 03:10:39;;;;;;;3.10;0.70;;;19.50;46.60;;;;;;4930507;29;20538;-83
2022/01/20 03:13:05;;;;;;;3.15;0.85;;;19.50;46.70;;;;;;4914848;29;20052;-83
2022/01/20 03:15:34;;;;;;;2.30;0.75;;;19.50;46.70;;;;;;4914094;29;20091;-83
2022/01/20 03:17:59;;;;;;;5.35;0.98;;;20.70;47.30;;;;;;4914591;29;20055;-84
2022/01/20 03:20:25;;;;;;;2.63;0.60;;;19.50;46.60;;;;;;4915119;29;20460;-84
2022/01/20 03:22:50;;;;;;;3.30;0.80;;;19.50;46.70;;;;;;4928235;29;20146;-84
2022/01/20 03:25:16;;;;;;;2.72;0.70;;;19.50;46.60;;;;;;4930533;29;20055;-83
2022/01/20 03:27:41;;;;;;;3.15;0.90;;;19.20;46.50;;;;;;4914984;29;20106;-84
2022/01/20 03:30:08;;;;;;;3.17;0.88;;;19.40;46.60;;;;;;4929735;29;20407;-83
2022/01/20 03:32:34;;;;;;;3.53;1.00;;;19.50;46.70;;;;;;4914512;29;20059;-83
2022/01/20 03:35:00;;;;;;;3.10;0.80;;;19.40;46.60;;;;;;4930566;29;20459;-83
2022/01/20 03:37:25;;;;;;;2.40;0.80;;;19.40;46.60;;;;;;4913910;29;20142;-83
2022/01/20 03:39:51;;;;;;;3.25;1.00;;;19.40;46.60;;;;;;4930037;29;20578;-82
2022/01/20 03:42:16;;;;;;;2.53;0.68;;;19.40;46.70;;;;;;4930396;29;20496;-83
2022/01/20 03:44:42;;;;;;;2.30;0.60;;;19.40;46.70;;;;;;4913937;29;20047;-83
2022/01/20 03:47:09;;;;;;;2.58;0.70;;;19.40;46.70;;;;;;4914635;29;20058;-83
2022/01/20 03:49:50;;;;;;;2.95;0.80;;;19.40;46.70;;;;;;4930320;29;20107;-83
2022/01/20 03:52:15;;;;;;;4.60;1.02;;;19.40;46.70;;;;;;4930331;29;20476;-83
2022/01/20 03:54:41;;;;;;;2.63;0.80;;;19.30;46.70;;;;;;4930392;29;20138;-83
2022/01/20 03:57:07;;;;;;;1.80;0.40;;;19.30;46.70;;;;;;4929343;29;20723;-83
2022/01/20 03:59:32;;;;;;;2.70;0.65;;;19.30;46.70;;;;;;4929928;29;20052;-83
2022/01/20 04:01:58;;;;;;;1.30;0.45;;;19.30;46.70;;;;;;4930276;29;20050;-83
2022/01/20 04:04:23;;;;;;;2.38;0.75;;;19.30;46.70;;;;;;4913865;29;20052;-83
2022/01/20 04:06:49;;;;;;;2.35;0.52;;;19.30;46.70;;;;;;4914160;29;20086;-83
2022/01/20 04:09:14;;;;;;;3.33;0.70;;;19.30;46.70;;;;;;4914328;29;20062;-83
2022/01/20 04:11:40;;;;;;;2.30;0.75;;;19.30;46.70;;;;;;4929497;29;20134;-83
2022/01/20 04:14:06;;;;;;;2.63;0.63;;;19.30;46.70;;;;;;4914119;29;20040;-82
2022/01/20 04:16:50;;;;;;;2.97;0.57;;;19.30;46.70;;;;;;4930740;29;20080;-83
2022/01/20 04:19:15;;;;;;;3.05;0.75;;;19.30;46.70;;;;;;4929715;29;20043;-83
2022/01/20 04:21:42;;;;;;;2.70;0.70;;;19.30;46.70;;;;;;4914131;29;20543;-83
2022/01/20 04:24:08;;;;;;;2.22;0.70;;;20.40;47.30;;;;;;4914095;29;20060;-83
2022/01/20 04:26:35;;;;;;;2.60;0.70;;;19.30;46.80;;;;;;4913325;29;20043;-83
2022/01/20 04:29:00;;;;;;;1.27;0.43;;;19.30;46.80;;;;;;4913987;29;20492;-83
2022/01/20 04:31:28;;;;;;;2.22;0.63;;;19.30;46.80;;;;;;4930230;29;20082;-83
2022/01/20 04:33:56;;;;;;;2.38;0.70;;;19.30;46.80;;;;;;4913700;29;20055;-83
2022/01/20 04:36:22;;;;;;;2.50;0.52;;;19.30;46.80;;;;;;4913777;29;20158;-83
2022/01/20 04:38:47;;;;;;;2.67;0.57;;;19.60;47.70;;;;;;4930097;29;20138;-83
2022/01/20 04:41:13;;;;;;;1.85;0.50;;;19.30;46.80;;;;;;4929199;29;20050;-83
2022/01/20 04:43:38;;;;;;;1.73;0.40;;;19.30;46.80;;;;;;4913836;29;20436;-83
2022/01/20 04:49:13;;;;;;;2.20;0.52;;;19.30;47.50;;;;;;4913896;29;20419;-83
2022/01/20 04:57:07;;;;;;;1.67;0.45;;;19.20;46.70;;;;;;4936323;29;20051;-83
2022/01/20 04:59:33;;;;;;;1.98;0.50;;;19.20;46.70;;;;;;4936405;29;20495;-83
2022/01/20 05:01:58;;;;;;;1.75;0.45;;;19.20;46.70;;;;;;4935295;29;20102;-84
2022/01/20 05:04:25;;;;;;;1.48;0.52;;;19.20;46.70;;;;;;4936080;29;20415;-83
2022/01/20 05:06:53;;;;;;;1.42;0.40;;;19.20;46.80;;;;;;4935694;29;20062;-84
2022/01/20 05:09:20;;;;;;;2.35;0.68;;;19.20;46.80;;;;;;4935571;29;20050;-83
2022/01/20 05:11:48;;;;;;;2.55;0.60;;;19.20;46.80;;;;;;4936234;29;20049;-83
2022/01/20 05:14:13;;;;;;;1.35;0.35;;;19.20;46.80;;;;;;4935148;29;20492;-83
2022/01/20 05:16:39;;;;;;;1.33;0.40;;;19.20;46.80;;;;;;4936143;29;20050;-83
2022/01/20 05:19:05;;;;;;;1.67;0.40;;;19.20;46.90;;;;;;4935860;29;20543;-83
2022/01/20 05:21:30;;;;;;;2.22;0.60;;;19.20;46.90;;;;;;4951005;29;20039;-83
2022/01/20 05:23:56;;;;;;;2.72;0.60;;;19.20;46.90;;;;;;4951722;29;20039;-83
2022/01/20 05:26:21;;;;;;;2.63;0.63;;;19.20;47.00;;;;;;4951541;29;20411;-83
2022/01/20 05:28:47;;;;;;;3.00;0.68;;;19.30;47.00;;;;;;4950535;29;20051;-83
2022/01/20 05:31:12;;;;;;;1.10;0.32;;;19.20;47.00;;;;;;4935873;29;20047;-83
2022/01/20 05:33:38;;;;;;;1.73;0.40;;;19.30;47.00;;;;;;4951726;28;20089;-83
2022/01/20 05:36:03;;;;;;;1.88;0.40;;;19.30;47.10;;;;;;4951203;29;20133;-83
2022/01/20 05:38:29;;;;;;;2.50;0.40;;;19.30;47.10;;;;;;4935613;29;20058;-82
2022/01/20 05:40:55;;;;;;;1.73;0.40;;;19.30;47.00;;;;;;4935749;29;20388;-83
2022/01/20 05:43:20;;;;;;;1.90;0.40;;;19.30;47.00;;;;;;4934796;29;20062;-83
2022/01/20 05:45:46;;;;;;;1.48;0.40;;;19.40;47.80;;;;;;4951601;29;20054;-83
2022/01/20 05:48:15;;;;;;;3.00;0.57;;;19.40;47.10;;;;;;4951085;29;20709;-82
2022/01/20 05:50:40;;;;;;;1.50;0.40;;;19.40;47.00;;;;;;4935081;29;20039;-83
2022/01/20 05:53:06;;;;;;;1.35;0.32;;;19.40;47.00;;;;;;4951530;29;20051;-83
2022/01/20 05:55:32;;;;;;;1.80;0.20;;;19.40;47.00;;;;;;4935746;29;20051;-82
2022/01/20 05:57:57;;;;;;;1.48;0.30;;;19.40;47.00;;;;;;4934344;29;20047;-83
2022/01/20 06:00:24;;;;;;;1.88;0.40;;;19.40;47.00;;;;;;4951305;29;20133;-83
2022/01/20 06:05:34;;;;;;;1.52;0.40;;;19.50;47.00;;;;;;4934424;29;20511;-83
2022/01/20 06:08:00;;;;;;;0.93;0.20;;;19.50;47.00;;;;;;4951329;29;20134;-83
2022/01/20 06:10:26;;;;;;;1.45;0.40;;;19.50;47.00;;;;;;4930149;29;20055;-83
2022/01/20 06:12:51;;;;;;;0.70;0.22;;;19.50;47.00;;;;;;4950144;28;20043;-83
2022/01/20 06:15:17;;;;;;;1.23;0.28;;;19.50;47.00;;;;;;4950921;29;20035;-83
2022/01/20 06:17:42;;;;;;;1.00;0.25;;;19.60;47.00;;;;;;4950338;29;20051;-83
2022/01/20 06:20:09;;;;;;;1.05;0.30;;;19.50;47.00;;;;;;4934808;29;20043;-83
2022/01/20 06:22:34;;;;;;;0.98;0.30;;;19.60;47.00;;;;;;4934900;29;20503;-83
2022/01/20 06:25:00;;;;;;;1.95;0.47;;;21.20;47.90;;;;;;4950370;29;20054;-83
2022/01/20 06:27:25;;;;;;;1.15;0.28;;;19.60;47.70;;;;;;4935710;29;20487;-83
2022/01/20 06:29:51;;;;;;;1.45;0.40;;;19.60;47.00;;;;;;4930810;29;22424;-83
2022/01/20 06:32:16;;;;;;;1.65;0.30;;;19.60;46.90;;;;;;4941052;29;20098;-83
2022/01/20 06:34:42;;;;;;;1.98;0.40;;;19.60;47.00;;;;;;4927242;29;20109;-83
2022/01/20 06:37:07;;;;;;;1.20;0.30;;;19.70;47.00;;;;;;4906553;29;20063;-83
2022/01/20 06:39:33;;;;;;;1.88;0.30;;;19.70;46.90;;;;;;4918517;29;20059;-83
2022/01/20 06:41:58;;;;;;;2.05;0.20;;;19.70;46.90;;;;;;4931825;29;20051;-82
2022/01/20 06:44:25;;;;;;;0.70;0.30;;;19.70;46.90;;;;;;4918711;29;20051;-83
2022/01/20 06:46:51;;;;;;;0.47;0.10;;;19.70;47.00;;;;;;4929261;29;20119;-82
2022/01/20 06:49:17;;;;;;;0.60;0.30;;;19.70;46.90;;;;;;4934723;29;20854;-83
2022/01/20 06:51:46;;;;;;;1.77;0.30;;;19.70;46.90;;;;;;4918618;29;20448;-83
2022/01/20 06:54:11;;;;;;;1.23;0.30;;;19.80;46.90;;;;;;4933330;29;20038;-83
2022/01/20 06:56:37;;;;;;;1.25;0.30;;;19.80;46.90;;;;;;4930753;29;20059;-83
2022/01/20 06:59:03;;;;;;;1.73;0.32;;;19.80;46.90;;;;;;4915376;29;20047;-83
2022/01/20 07:01:29;;;;;;;0.90;0.30;;;19.80;46.90;;;;;;4914345;29;20051;-83
2022/01/20 07:03:54;;;;;;;0.90;0.20;;;19.80;46.90;;;;;;4915171;29;20047;-83
2022/01/20 07:06:20;;;;;;;1.38;0.30;;;19.90;46.90;;;;;;4928360;29;20407;-83
2022/01/20 07:08:45;;;;;;;1.05;0.30;;;19.90;46.90;;;;;;4924575;29;20126;-79
2022/01/20 07:11:11;;;;;;;1.95;0.32;;;19.90;46.90;;;;;;4934187;29;20051;-82
2022/01/20 07:13:36;;;;;;;0.98;0.30;;;19.90;46.90;;;;;;4921872;29;20055;-83
2022/01/20 07:16:02;;;;;;;1.90;0.45;;;19.90;46.80;;;;;;4933489;29;20242;-83
2022/01/20 07:18:28;;;;;;;0.75;0.20;;;19.90;46.80;;;;;;4930767;29;20047;-83
2022/01/20 07:20:54;;;;;;;0.70;0.15;;;19.90;46.80;;;;;;4915038;29;20166;-82
2022/01/20 07:23:20;;;;;;;1.65;0.20;;;19.90;46.80;;;;;;4932199;29;20047;-83
2022/01/20 07:25:45;;;;;;;2.13;0.30;;;20.00;46.80;;;;;;4914905;29;20095;-83
2022/01/20 07:28:11;;;;;;;1.33;0.20;;;20.00;46.70;;;;;;4914095;29;20055;-82
2022/01/20 07:30:36;;;;;;;1.30;0.30;;;20.00;46.70;;;;;;4921401;29;20039;-82
2022/01/20 07:33:05;;;;;;;1.75;0.20;;;20.00;46.70;;;;;;4916782;29;20060;-82
2022/01/20 07:35:31;;;;;;;0.93;0.20;;;20.00;46.70;;;;;;4944218;29;20083;-82
2022/01/20 07:37:56;;;;;;;0.73;0.20;;;20.00;46.70;;;;;;4925167;29;20805;-82
2022/01/20 07:40:22;;;;;;;1.58;0.40;;;20.00;46.70;;;;;;4940534;28;20063;-82
2022/01/20 07:42:47;;;;;;;0.98;0.30;;;20.00;46.60;;;;;;4932619;29;20133;-82
2022/01/20 07:45:13;;;;;;;1.05;0.30;;;20.00;46.60;;;;;;4933595;29;20035;-82
2022/01/20 07:47:39;;;;;;;1.55;0.20;;;20.00;46.60;;;;;;4929888;29;20078;-82
2022/01/20 07:50:05;;;;;;;0.77;0.10;;;20.00;46.50;;;;;;4942112;29;20142;-82
2022/01/20 07:52:30;;;;;;;1.20;0.40;;;20.00;46.60;;;;;;4926573;29;20082;-82
2022/01/20 07:54:56;;;;;;;0.70;0.30;;;20.00;46.50;;;;;;4932585;29;20082;-82
2022/01/20 07:57:21;;;;;;;1.38;0.20;;;20.00;46.50;;;;;;4922135;29;20039;-82
2022/01/20 07:59:47;;;;;;;2.17;0.40;;;20.00;46.50;;;;;;4928108;29;20051;-82
2022/01/20 08:02:12;;;;;;;2.20;0.45;;;20.70;46.90;;;;;;4916923;29;20055;-81
2022/01/20 08:04:38;;;;;;;1.52;0.20;;;20.00;46.50;;;;;;4914005;29;20043;-82
2022/01/20 08:07:03;;;;;;;1.17;0.20;;;20.00;46.50;;;;;;4914340;29;20061;-81
2022/01/20 08:09:29;;;;;;;1.83;0.40;;;20.00;46.50;;;;;;4914260;29;20079;-81
2022/01/20 08:11:55;;;;;;;1.83;0.40;;;20.00;46.40;;;;;;4913444;29;20113;-81
2022/01/20 08:14:20;;;;;;;0.75;0.30;;;20.00;46.40;;;;;;4914101;29;20159;-81
2022/01/20 08:16:46;;;;;;;1.50;0.30;;;20.00;46.50;;;;;;4914794;29;20148;-83
2022/01/20 08:19:11;;;;;;;2.10;0.30;;;20.00;46.40;;;;;;4913690;29;20484;-82
2022/01/20 08:21:37;;;;;;;1.42;0.30;;;20.00;46.40;;;;;;4923623;29;20051;-83
2022/01/20 08:24:02;;;;;;;1.50;0.30;;;20.00;46.40;;;;;;4912854;29;20059;-79
2022/01/20 08:26:30;;;;;;;0.82;0.20;;;20.00;46.40;;;;;;4928280;29;21078;-80
2022/01/20 08:28:56;;;;;;;1.52;0.22;;;20.00;46.40;;;;;;4934412;29;20051;-80
2022/01/20 08:31:21;;;;;;;0.77;0.20;;;20.00;46.30;;;;;;4929578;29;20053;-83
2022/01/20 08:33:47;;;;;;;2.05;0.30;;;20.00;46.40;;;;;;4934522;29;20074;-81
2022/01/20 08:36:12;;;;;;;4.07;0.77;;;19.90;46.30;;;;;;4929661;29;20066;-82
2022/01/20 08:38:38;;;;;;;2.60;0.50;;;19.90;46.20;;;;;;4917904;29;20086;-81
2022/01/20 08:41:03;;;;;;;3.22;0.50;;;19.90;46.20;;;;;;4933405;28;20055;-84
2022/01/20 08:43:29;;;;;;;3.53;0.50;;;19.90;46.20;;;;;;4929501;29;20527;-82
2022/01/20 08:45:55;;;;;;;3.90;0.57;;;19.90;46.30;;;;;;4935687;29;20047;-80
2022/01/20 08:48:26;;;;;;;6.43;0.68;;;19.90;46.40;;;;;;4936349;28;20063;-81
2022/01/20 08:50:59;;;;;;;3.72;0.60;;;21.30;47.10;;;;;;4933093;29;20035;-81
2022/01/20 08:53:31;;;;;;;11.73;1.10;;;19.80;46.50;;;;;;4932723;29;20063;-84
2022/01/20 08:56:06;;;;;;;8.15;0.80;;;19.70;46.50;;;;;;4917376;29;20052;-85
2022/01/20 08:58:31;;;;;;;6.80;1.27;;;19.90;47.00;;;;;;4916989;29;20047;-85
2022/01/20 09:00:57;;;;;;;6.45;0.95;;;20.10;46.80;;;;;;4921428;29;20039;-85
2022/01/20 09:03:22;;;;;;;4.30;0.75;;;19.80;46.60;;;;;;4932590;29;20048;-85
2022/01/20 09:05:48;;;;;;;5.47;0.60;;;19.80;46.50;;;;;;4934016;29;20098;-85
2022/01/20 09:08:14;;;;;;;3.22;0.65;;;19.80;46.50;;;;;;4933238;29;20050;-85
2022/01/20 09:10:43;;;;;;;3.80;0.60;;;19.80;46.60;;;;;;4933680;29;20082;-85
2022/01/20 09:15:54;;;;;;;3.50;0.82;;;19.80;46.60;;;;;;4920066;29;20079;-85
2022/01/20 09:18:22;;;;;;;3.50;0.50;;;19.80;46.60;;;;;;4933588;29;20125;-85
2022/01/20 09:20:47;;;;;;;4.57;0.50;;;19.80;46.60;;;;;;4935168;29;20102;-85
2022/01/20 09:23:16;;;;;;;3.97;0.43;;;19.80;46.70;;;;;;4933416;29;20043;-85
2022/01/20 09:25:42;;;;;;;2.05;0.60;;;19.80;46.60;;;;;;4932448;29;20054;-85
2022/01/20 09:28:08;;;;;;;4.97;0.70;;;19.90;46.70;;;;;;4931892;29;20036;-85
2022/01/20 09:30:35;;;;;;;2.05;0.50;;;19.90;46.70;;;;;;4933768;29;20047;-85
2022/01/20 09:33:12;;;;;;;3.53;0.50;;;19.90;46.70;;;;;;4940820;29;20062;-85
2022/01/20 09:35:39;;;;;;;4.90;0.70;;;19.90;46.70;;;;;;4929831;29;20054;-86
2022/01/20 09:38:04;;;;;;;5.68;0.73;;;19.90;46.70;;;;;;4931402;29;20044;-87
2022/01/20 09:40:31;;;;;;;2.53;0.40;;;19.90;46.70;;;;;;4933195;29;20063;-84
2022/01/20 09:42:57;;;;;;;2.47;0.50;;;19.90;46.60;;;;;;4929697;29;20056;-84
2022/01/20 09:45:22;;;;;;;1.60;0.30;;;19.90;46.60;;;;;;4935064;29;20106;-84
2022/01/20 09:47:48;;;;;;;2.55;0.52;;;20.00;46.60;;;;;;4935193;29;20185;-84
2022/01/20 09:50:14;;;;;;;2.65;0.60;;;19.90;46.50;;;;;;4934800;29;20047;-84
2022/01/20 09:52:40;;;;;;;2.33;0.40;;;19.90;46.90;;;;;;4935274;29;20559;-84
2022/01/20 09:55:06;;;;;;;2.00;0.50;;;19.90;46.50;;;;;;4935232;29;20129;-84
2022/01/20 09:57:34;;;;;;;2.42;0.50;;;19.90;46.50;;;;;;4934611;29;20047;-84
2022/01/20 10:00:00;;;;;;;2.55;0.60;;;20.00;46.60;;;;;;4935140;28;20050;-83
2022/01/20 10:02:25;;;;;;;1.30;0.30;;;20.00;46.60;;;;;;4935508;29;20051;-83
2022/01/20 10:04:52;;;;;;;2.60;0.57;;;20.00;46.60;;;;;;4934248;29;20101;-83
2022/01/20 10:07:18;;;;;;;2.00;0.32;;;20.00;46.60;;;;;;4935651;29;20119;-83
2022/01/20 10:09:49;;;;;;;2.13;0.43;;;20.00;46.50;;;;;;4935240;29;20514;-84
2022/01/20 10:12:16;;;;;;;2.15;0.57;;;20.00;46.50;;;;;;4934521;29;20078;-84
2022/01/20 10:14:52;;;;;;;2.15;0.30;;;20.00;46.50;;;;;;4934853;29;20051;-84
2022/01/20 10:17:20;;;;;;;2.83;0.30;;;20.00;46.50;;;;;;4934323;29;20082;-84
2022/01/20 10:19:45;;;;;;;1.88;0.32;;;20.00;46.50;;;;;;4934946;29;20058;-83
2022/01/20 10:22:15;;;;;;;2.00;0.38;;;20.00;46.40;;;;;;4934758;29;20040;-83
2022/01/20 10:24:41;;;;;;;2.25;0.60;;;20.00;46.40;;;;;;4934204;29;20559;-82
2022/01/20 10:27:09;;;;;;;2.25;0.35;;;20.00;46.40;;;;;;4935402;29;20051;-83
2022/01/20 10:29:34;;;;;;;2.55;0.43;;;20.00;46.40;;;;;;4934673;29;20062;-83
2022/01/20 10:32:00;;;;;;;2.45;0.80;;;20.00;46.40;;;;;;4932467;29;20055;-83
2022/01/20 10:34:35;;;;;;;1.73;0.38;;;20.00;46.40;;;;;;4934501;29;20046;-83
2022/01/20 10:37:06;;;;;;;2.10;0.40;;;20.00;46.40;;;;;;4934199;29;20526;-85
2022/01/20 10:42:05;;;;;;;1.90;0.30;;;20.00;46.40;;;;;;4994801;23;20074;-84
2022/01/20 10:44:41;;;;;;;2.20;0.40;;;20.00;46.40;;;;;;4972954;28;20048;-85
2022/01/20 10:47:20;;;;;;;2.22;0.40;;;20.00;46.40;;;;;;4972360;28;20078;-83
2022/01/20 10:49:46;;;;;;;1.40;0.45;;;20.00;46.40;;;;;;4972071;28;20490;-84
2022/01/20 10:52:13;;;;;;;1.70;0.40;;;20.00;46.40;;;;;;4972197;28;20073;-84
2022/01/20 10:54:52;;;;;;;2.47;0.35;;;20.10;46.40;;;;;;4973218;28;20054;-84
2022/01/20 10:57:28;;;;;;;1.30;0.30;;;20.10;46.40;;;;;;4972980;28;20053;-84
2022/01/20 10:59:58;;;;;;;2.00;0.40;;;20.10;46.40;;;;;;4971982;28;20093;-84
2022/01/20 11:02:27;;;;;;;1.55;0.40;;;20.10;46.40;;;;;;4972565;28;20046;-84
2022/01/20 11:04:53;;;;;;;2.58;0.45;;;20.00;46.30;;;;;;4972827;28;20132;-84
2022/01/20 11:07:18;;;;;;;1.20;0.30;;;20.10;46.30;;;;;;4972111;28;20073;-84
2022/01/20 11:09:46;;;;;;;1.80;0.45;;;20.10;46.30;;;;;;4972100;28;20054;-84
2022/01/20 11:12:15;;;;;;;2.75;0.60;;;20.10;46.40;;;;;;4972906;28;20057;-84
2022/01/20 11:14:42;;;;;;;0.70;0.20;;;20.10;46.30;;;;;;4967492;28;20047;-82
2022/01/20 11:17:08;;;;;;;1.40;0.40;;;20.10;46.30;;;;;;4959341;28;20695;-84
2022/01/20 11:19:36;;;;;;;2.50;0.35;;;20.10;46.30;;;;;;4961122;28;20054;-83
2022/01/20 11:22:09;;;;;;;3.08;0.30;;;20.10;46.30;;;;;;4959242;28;20049;-83
2022/01/20 11:24:37;;;;;;;1.73;0.40;;;20.10;46.30;;;;;;4963163;28;20053;-85
2022/01/20 11:27:03;;;;;;;1.33;0.40;;;20.10;46.20;;;;;;4969618;28;20042;-85
2022/01/20 11:29:42;;;;;;;2.30;0.35;;;20.10;46.30;;;;;;4972276;28;20053;-85
2022/01/20 11:32:24;;;;;;;1.30;0.30;;;20.10;46.20;;;;;;4972408;28;20050;-85
2022/01/20 11:35:08;;;;;;;1.13;0.30;;;20.10;46.20;;;;;;4968362;28;20500;-85
2022/01/20 11:37:40;;;;;;;1.42;0.30;;;20.10;46.20;;;;;;4967098;28;20046;-84
2022/01/20 11:40:19;;;;;;;1.85;0.30;;;19.50;45.90;;;;;;4966085;28;20066;-84
2022/01/20 11:42:58;;;;;;;2.50;0.38;;;20.10;46.20;;;;;;4970611;28;20042;-85
2022/01/20 11:45:32;;;;;;;1.52;0.30;;;20.10;46.20;;;;;;4982874;28;20509;-84
2022/01/20 11:47:58;;;;;;;1.83;0.40;;;20.10;46.20;;;;;;4979634;28;20046;-85
2022/01/20 11:50:24;;;;;;;1.77;0.40;;;20.20;47.00;;;;;;4979972;28;20050;-85
2022/01/20 11:52:50;;;;;;;0.70;0.30;;;20.20;46.20;;;;;;4982290;28;20514;-85
2022/01/20 11:55:16;;;;;;;1.33;0.30;;;20.20;46.20;;;;;;4965137;28;20039;-85
2022/01/20 11:57:42;;;;;;;1.23;0.30;;;20.20;46.20;;;;;;4980833;28;20097;-85
2022/01/20 12:00:24;;;;;;;2.08;0.30;;;20.30;46.20;;;;;;4972921;28;20509;-85
2022/01/20 12:02:50;;;;;;;1.20;0.30;;;20.20;46.20;;;;;;4991698;28;20494;-85
2022/01/20 12:05:18;;;;;;;1.45;0.20;;;20.20;46.10;;;;;;5008548;28;20042;-85
2022/01/20 12:07:44;;;;;;;2.63;0.30;;;20.20;46.10;;;;;;4992205;28;20053;-85
2022/01/20 12:10:11;;;;;;;1.48;0.30;;;20.20;46.10;;;;;;5007404;28;20050;-85
2022/01/20 12:12:39;;;;;;;1.90;0.30;;;20.20;46.10;;;;;;5008406;28;20038;-85
2022/01/20 12:15:20;;;;;;;1.00;0.30;;;20.20;46.00;;;;;;5008288;28;20050;-85
2022/01/20 12:17:50;;;;;;;1.07;0.23;;;20.20;46.00;;;;;;5007513;28;20129;-85
2022/01/20 12:20:16;;;;;;;1.35;0.28;;;20.20;46.00;;;;;;4834929;28;5002456;-85
2022/01/20 12:22:42;;;;;;;0.80;0.20;;;20.30;46.10;;;;;;4977600;28;20058;-83
2022/01/20 12:25:13;;;;;;;1.20;0.30;;;20.20;46.00;;;;;;4986052;28;20133;-86
2022/01/20 12:27:42;;;;;;;1.42;0.20;;;20.20;46.10;;;;;;4980076;28;20058;-85
2022/01/20 12:30:22;;;;;;;1.73;0.22;;;20.20;46.10;;;;;;4984812;28;20462;-84
2022/01/20 12:32:59;;;;;;;1.58;0.30;;;20.20;46.00;;;;;;4983189;28;20465;-85
2022/01/20 12:35:24;;;;;;;1.67;0.30;;;20.20;46.00;;;;;;4974583;28;20069;-85
2022/01/20 12:37:50;;;;;;;0.82;0.20;;;20.20;45.90;;;;;;4987085;28;20077;-84
2022/01/20 12:40:20;;;;;;;1.30;0.30;;;20.30;46.00;;;;;;4986551;28;20057;-85
2022/01/20 12:42:47;;;;;;;1.73;0.38;;;20.20;46.00;;;;;;4987590;28;20054;-83
2022/01/20 12:48:16;;;;;;;4.72;0.50;;;20.20;46.00;;;;;;4989689;28;20050;-91
2022/01/20 12:50:55;;;;;;;4.35;0.43;;;20.20;45.90;;;;;;4990543;28;20038;-87
2022/01/20 12:53:58;;;;;;;3.97;0.75;;;20.20;45.60;;;;;;4990286;28;20061;-86
2022/01/20 12:56:30;;;;;;;3.08;0.60;;;20.10;45.30;;;;;;4965020;28;20062;-88
2022/01/20 12:58:56;;;;;;;2.78;0.43;;;20.70;45.50;;;;;;4990287;28;20790;-90
2022/01/20 13:01:22;;;;;;;4.70;0.45;;;20.10;45.10;;;;;;4990079;28;20049;-88
2022/01/20 13:03:47;;;;;;;3.58;0.68;;;21.30;46.10;;;;;;4989876;28;20403;-87
2022/01/20 13:06:22;;;;;;;5.00;0.68;;;20.00;45.40;;;;;;4990150;28;20053;-87
2022/01/20 13:08:56;;;;;;;6.07;0.68;;;20.00;44.90;;;;;;4992422;28;20133;-87
2022/01/20 13:11:28;;;;;;;8.10;0.60;;;20.00;44.70;;;;;;4981487;28;20842;-88
2022/01/20 13:13:53;;;;;;;;;;;20.00;45.30;;;;;;4971645;28;20395;-89
2022/01/20 13:16:19;;;;;;;2.55;0.38;;;20.00;45.40;;;;;;4971510;28;19933;-87
2022/01/20 13:18:55;;;;;;;1.98;0.30;;;21.30;46.30;;;;;;4978638;28;20129;-87
2022/01/20 13:21:25;;;;;;;4.30;0.73;;;20.00;45.70;;;;;;4988603;28;20078;-87
2022/01/20 13:23:57;;;;;;;4.00;0.50;;;20.00;45.40;;;;;;4990492;28;20043;-88
2022/01/20 13:26:23;;;;;;;3.55;0.60;;;20.00;45.40;;;;;;5006883;28;20046;-88
2022/01/20 13:29:04;;;;;;;5.85;0.50;;;20.00;46.10;;;;;;4989676;28;20051;-90
2022/01/20 13:31:30;;;;;;;2.15;0.55;;;20.00;45.40;;;;;;5006572;28;20767;-91
2022/01/20 13:33:59;;;;;;;2.40;0.43;;;20.00;45.40;;;;;;4999664;28;20038;-79
2022/01/20 13:36:34;;;;;;;3.78;0.60;;;20.00;45.50;;;;;;4987830;28;20057;-79
2022/01/20 13:39:01;;;;;;;10.50;2.05;;;19.90;45.50;;;;;;4974223;28;20129;-79
2022/01/20 13:41:28;;;;;;;100.70;33.30;;;19.90;45.50;;;;;;4983334;28;20089;-79
2022/01/20 13:46:43;;;;;;;54.53;17.83;;;19.90;45.60;;;;;;4970666;28;20054;-80
2022/01/20 13:49:13;;;;;;;44.28;17.13;;;19.90;45.60;;;;;;4969599;28;20049;-80
2022/01/20 13:51:39;;;;;;;46.13;16.23;;;19.90;45.60;;;;;;4970252;28;20097;-80
2022/01/20 13:54:04;;;;;;;45.10;15.57;;;20.20;45.80;;;;;;4986942;28;20042;-80
2022/01/20 13:56:30;;;;;;;49.90;16.48;;;19.90;45.70;;;;;;4969594;28;20082;-79